Time;durP1;ratioP1;P1;durP2;ratioP2;P2;SDS_P1;SDS_P2;PMS_P1;PMS_P2;Temp;Humidity;BMP_temperature;BMP_pressure;BME280_temperature;BME280_humidity;BME280_pressure;Samples;Min_cycle;Max_cycle;Signal;HPM_P1;HPM_P2
2021/11/27 00:01:18;;;;;;;9.38;4.53;;;;;;;;;;5023753;28;20091;-67
2021/11/27 00:03:44;;;;;;;8.13;4.18;;;;;;;;;;5023205;28;20100;-67
2021/11/27 00:06:13;;;;;;;11.07;4.20;;;;;;;;;;5023612;28;20095;-67
2021/11/27 00:08:39;;;;;;;9.57;4.90;;;;;;;;;;5023909;28;20561;-67
2021/11/27 00:11:06;;;;;;;7.32;4.43;;;;;;;;;;5023636;28;20463;-67
2021/11/27 00:13:33;;;;;;;7.18;4.50;;;;;;;;;;5023643;28;20089;-67
2021/11/27 00:16:00;;;;;;;9.52;4.72;;;;;;;;;;5024460;28;20073;-69
2021/11/27 00:18:27;;;;;;;9.55;4.68;;;;;;;;;;5023597;28;20099;-67
2021/11/27 00:20:56;;;;;;;9.02;4.35;;;;;;;;;;5023328;28;20083;-67
2021/11/27 00:23:25;;;;;;;6.63;3.90;;;;;;;;;;5023421;28;20045;-67
2021/11/27 00:25:52;;;;;;;7.72;3.88;;;;;;;;;;5024082;28;20084;-67
2021/11/27 00:28:19;;;;;;;8.27;3.95;;;;;;;;;;5022792;28;20878;-67
2021/11/27 00:30:46;;;;;;;9.48;4.43;;;;;;;;;;5024172;28;20123;-67
2021/11/27 00:33:13;;;;;;;6.28;4.03;;;;;;;;;;5024523;28;20167;-67
2021/11/27 00:35:40;;;;;;;6.20;3.40;;;;;;;;;;5021222;28;20088;-67
2021/11/27 00:38:07;;;;;;;7.18;4.03;;;;;;;;;;5021490;28;20073;-67
2021/11/27 00:40:37;;;;;;;9.20;4.15;;;;;;;;;;5022056;28;20045;-67
2021/11/27 00:43:05;;;;;;;9.50;4.45;;;;;;;;;;5023325;28;20791;-67
2021/11/27 00:45:32;;;;;;;6.45;3.15;;;;;;;;;;5022107;28;20075;-67
2021/11/27 00:47:59;;;;;;;7.30;3.60;;;;;;;;;;5021942;28;20053;-68
2021/11/27 00:50:31;;;;;;;6.47;3.58;;;;;;;;;;5020166;28;20767;-68
2021/11/27 00:52:58;;;;;;;7.93;3.60;;;;;;;;;;5023247;28;20053;-68
2021/11/27 00:55:25;;;;;;;7.10;3.88;;;;;;;;;;5022724;28;20065;-68
2021/11/27 00:57:54;;;;;;;8.88;4.53;;;;;;;;;;5021493;28;20555;-68
2021/11/27 01:00:23;;;;;;;8.93;4.03;;;;;;;;;;5020184;28;20142;-68
2021/11/27 01:02:50;;;;;;;6.72;3.97;;;;;;;;;;5023772;28;20084;-68
2021/11/27 01:05:17;;;;;;;6.20;3.45;;;;;;;;;;5024249;28;20073;-68
2021/11/27 01:07:44;;;;;;;7.85;3.35;;;;;;;;;;5023506;28;20054;-68
2021/11/27 01:10:15;;;;;;;6.85;3.45;;;;;;;;;;5020249;28;20060;-68
2021/11/27 01:12:43;;;;;;;7.60;3.47;;;;;;;;;;5023952;28;20077;-68
2021/11/27 01:15:13;;;;;;;9.18;3.75;;;;;;;;;;5027009;28;20064;-68
2021/11/27 01:17:39;;;;;;;6.68;3.35;;;;;;;;;;5025830;28;20064;-68
2021/11/27 01:20:08;;;;;;;6.45;3.15;;;;;;;;;;5025277;28;20099;-68
2021/11/27 01:22:35;;;;;;;4.80;2.63;;;;;;;;;;5025233;28;20081;-68
2021/11/27 01:25:01;;;;;;;5.88;3.28;;;;;;;;;;5026803;28;20057;-68
2021/11/27 01:27:28;;;;;;;4.93;2.90;;;;;;;;;;5027637;28;20081;-68
2021/11/27 01:29:55;;;;;;;6.85;2.97;;;;;;;;;;5022623;28;20057;-68
2021/11/27 01:32:23;;;;;;;7.43;3.80;;;;;;;;;;5025372;28;20119;-68
2021/11/27 01:34:49;;;;;;;7.30;3.45;;;;;;;;;;5027196;28;20057;-68
2021/11/27 01:37:16;;;;;;;5.80;2.85;;;;;;;;;;5027086;28;20083;-68
2021/11/27 01:39:44;;;;;;;6.22;3.47;;;;;;;;;;5024643;28;20054;-68
2021/11/27 01:42:12;;;;;;;6.95;3.90;;;;;;;;;;5025172;28;20057;-68
2021/11/27 01:44:39;;;;;;;6.40;3.20;;;;;;;;;;5025787;28;20072;-68
2021/11/27 01:47:06;;;;;;;7.07;3.30;;;;;;;;;;5027215;28;20103;-68
2021/11/27 01:49:35;;;;;;;6.03;2.85;;;;;;;;;;5022669;28;20057;-68
2021/11/27 01:52:02;;;;;;;5.65;2.83;;;;;;;;;;5024543;28;20684;-68
2021/11/27 01:54:29;;;;;;;7.25;3.08;;;;;;;;;;5025585;28;20135;-68
2021/11/27 01:56:59;;;;;;;6.70;3.08;;;;;;;;;;5026821;28;20046;-68
2021/11/27 01:59:30;;;;;;;5.88;2.72;;;;;;;;;;5024210;28;20073;-68
2021/11/27 02:01:57;;;;;;;6.15;2.75;;;;;;;;;;5025902;28;20077;-68
2021/11/27 02:04:25;;;;;;;6.70;2.95;;;;;;;;;;5025750;28;20080;-68
2021/11/27 02:06:53;;;;;;;6.25;2.83;;;;;;;;;;5025988;28;20080;-68
2021/11/27 02:09:22;;;;;;;6.63;3.03;;;;;;;;;;5024570;28;20104;-68
2021/11/27 02:11:50;;;;;;;6.00;2.60;;;;;;;;;;5026699;28;20054;-69
2021/11/27 02:14:17;;;;;;;4.70;2.38;;;;;;;;;;5026262;28;20069;-68
2021/11/27 02:16:45;;;;;;;6.50;2.33;;;;;;;;;;5025508;28;20053;-68
2021/11/27 02:19:12;;;;;;;5.95;2.60;;;;;;;;;;5023315;28;20060;-68
2021/11/27 02:21:44;;;;;;;4.85;2.60;;;;;;;;;;5025148;28;20087;-68
2021/11/27 02:24:10;;;;;;;4.88;2.25;;;;;;;;;;5025958;28;20108;-68
2021/11/27 02:26:37;;;;;;;4.10;2.22;;;;;;;;;;5026276;28;20132;-68
2021/11/27 02:29:06;;;;;;;5.38;2.90;;;;;;;;;;5024449;28;20130;-68
2021/11/27 02:31:33;;;;;;;7.72;3.38;;;;;;;;;;5025358;28;20041;-68
2021/11/27 02:34:00;;;;;;;4.90;2.22;;;;;;;;;;5026237;28;20107;-68
2021/11/27 02:36:28;;;;;;;8.23;4.43;;;;;;;;;;5025256;28;20589;-68
2021/11/27 02:38:57;;;;;;;16.80;7.68;;;;;;;;;;5022585;28;20053;-68
2021/11/27 02:41:23;;;;;;;6.43;3.92;;;;;;;;;;5024327;28;20104;-68
2021/11/27 02:43:50;;;;;;;6.00;3.05;;;;;;;;;;5025086;28;20076;-68
2021/11/27 02:46:17;;;;;;;6.80;3.17;;;;;;;;;;5026161;28;20061;-67
2021/11/27 02:48:43;;;;;;;7.20;3.17;;;;;;;;;;5024489;28;20073;-67
2021/11/27 02:51:10;;;;;;;7.35;3.47;;;;;;;;;;5023249;28;20053;-68
2021/11/27 02:53:37;;;;;;;7.22;3.53;;;;;;;;;;5024941;28;20140;-68
2021/11/27 02:56:06;;;;;;;8.13;3.55;;;;;;;;;;5024833;28;20045;-68
2021/11/27 02:58:33;;;;;;;5.50;3.05;;;;;;;;;;5024694;28;20057;-68
2021/11/27 03:01:02;;;;;;;6.60;3.60;;;;;;;;;;5023242;28;20076;-68
2021/11/27 03:03:28;;;;;;;5.18;2.88;;;;;;;;;;5023792;28;20049;-68
2021/11/27 03:05:55;;;;;;;7.38;3.13;;;;;;;;;;5024812;28;20041;-68
2021/11/27 03:08:22;;;;;;;6.00;2.92;;;;;;;;;;5023055;28;20077;-68
2021/11/27 03:10:48;;;;;;;5.75;2.42;;;;;;;;;;5024894;28;20131;-68
2021/11/27 03:13:17;;;;;;;5.25;2.92;;;;;;;;;;5025074;28;20073;-68
2021/11/27 03:15:43;;;;;;;6.65;3.25;;;;;;;;;;5023759;28;20057;-68
2021/11/27 03:18:10;;;;;;;8.63;3.97;;;;;;;;;;5024023;28;20057;-68
2021/11/27 03:20:38;;;;;;;5.65;2.90;;;;;;;;;;5023804;28;20049;-68
2021/11/27 03:23:06;;;;;;;6.95;3.33;;;;;;;;;;5024698;28;20104;-68
2021/11/27 03:25:33;;;;;;;5.60;2.53;;;;;;;;;;5025276;28;20135;-68
2021/11/27 03:27:59;;;;;;;6.00;2.80;;;;;;;;;;5023471;28;20088;-68
2021/11/27 03:30:27;;;;;;;7.25;2.80;;;;;;;;;;5021972;28;20045;-68
2021/11/27 03:32:54;;;;;;;6.07;2.83;;;;;;;;;;5023700;28;20045;-68
2021/11/27 03:35:21;;;;;;;7.07;3.47;;;;;;;;;;5024573;28;20053;-68
2021/11/27 03:37:49;;;;;;;9.50;3.05;;;;;;;;;;5025013;28;20136;-68
2021/11/27 03:40:17;;;;;;;6.97;2.67;;;;;;;;;;5023695;28;20049;-68
2021/11/27 03:42:44;;;;;;;6.70;2.85;;;;;;;;;;5023410;28;20045;-68
2021/11/27 03:45:14;;;;;;;6.65;2.88;;;;;;;;;;5022647;28;20057;-68
2021/11/27 03:47:56;;;;;;;5.82;2.83;;;;;;;;;;5024949;28;20054;-68
2021/11/27 03:50:22;;;;;;;6.57;3.08;;;;;;;;;;5020808;28;20079;-68
2021/11/27 03:52:49;;;;;;;5.95;2.95;;;;;;;;;;5024872;28;20116;-68
2021/11/27 03:55:16;;;;;;;6.90;3.28;;;;;;;;;;5025187;28;20570;-68
2021/11/27 03:57:42;;;;;;;7.28;2.85;;;;;;;;;;5023126;28;20095;-68
2021/11/27 04:00:10;;;;;;;5.47;2.70;;;;;;;;;;5021938;28;20042;-68
2021/11/27 04:02:36;;;;;;;6.75;3.30;;;;;;;;;;5025523;28;20069;-68
2021/11/27 04:05:05;;;;;;;6.60;2.70;;;;;;;;;;5024732;28;20147;-68
2021/11/27 04:07:31;;;;;;;5.78;2.78;;;;;;;;;;5023752;28;20397;-68
2021/11/27 04:09:58;;;;;;;5.68;3.10;;;;;;;;;;5021811;28;20153;-68
2021/11/27 04:12:24;;;;;;;9.20;2.97;;;;;;;;;;5024732;28;20141;-68
2021/11/27 04:14:51;;;;;;;5.80;2.97;;;;;;;;;;5024192;28;20080;-68
2021/11/27 04:17:17;;;;;;;4.65;2.28;;;;;;;;;;5025348;28;20843;-68
2021/11/27 04:19:44;;;;;;;6.32;2.42;;;;;;;;;;5021084;28;21044;-68
2021/11/27 04:22:12;;;;;;;5.82;2.97;;;;;;;;;;5022953;28;20115;-68
2021/11/27 04:24:39;;;;;;;5.30;2.88;;;;;;;;;;5023283;28;20053;-68
2021/11/27 04:27:06;;;;;;;5.22;2.35;;;;;;;;;;5024314;28;20060;-68
2021/11/27 04:29:33;;;;;;;4.03;2.28;;;;;;;;;;5022636;28;20136;-68
2021/11/27 04:31:59;;;;;;;5.70;2.40;;;;;;;;;;5024190;28;20099;-68
2021/11/27 04:34:26;;;;;;;5.45;2.20;;;;;;;;;;5023428;28;20081;-68
2021/11/27 04:36:52;;;;;;;5.45;2.63;;;;;;;;;;5023307;28;20073;-68
2021/11/27 04:39:21;;;;;;;4.13;2.15;;;;;;;;;;5020982;28;20124;-68
2021/11/27 04:41:47;;;;;;;4.97;2.13;;;;;;;;;;5023126;28;20735;-68
2021/11/27 04:44:14;;;;;;;4.72;2.35;;;;;;;;;;5024028;28;20049;-68
2021/11/27 04:46:40;;;;;;;5.00;2.63;;;;;;;;;;5022104;28;20053;-68
2021/11/27 04:49:07;;;;;;;6.18;2.72;;;;;;;;;;5027981;28;20061;-68
2021/11/27 04:51:33;;;;;;;4.32;2.25;;;;;;;;;;5025124;28;20484;-68
2021/11/27 04:54:00;;;;;;;4.55;2.25;;;;;;;;;;5027397;28;20045;-68
2021/11/27 04:56:28;;;;;;;3.85;2.22;;;;;;;;;;5028794;28;20504;-68
2021/11/27 04:58:55;;;;;;;4.35;2.28;;;;;;;;;;5024435;28;20451;-68
2021/11/27 05:01:22;;;;;;;4.15;1.95;;;;;;;;;;5024994;28;20085;-68
2021/11/27 05:03:49;;;;;;;6.75;2.30;;;;;;;;;;5027415;28;20046;-68
2021/11/27 05:06:16;;;;;;;4.10;2.03;;;;;;;;;;5027883;28;20436;-68
2021/11/27 05:08:42;;;;;;;4.75;2.22;;;;;;;;;;5026169;28;20508;-68
2021/11/27 05:11:09;;;;;;;3.95;2.03;;;;;;;;;;5025861;28;20103;-68
2021/11/27 05:13:39;;;;;;;4.32;1.83;;;;;;;;;;5026211;28;20050;-68
2021/11/27 05:16:06;;;;;;;3.10;1.90;;;;;;;;;;5027667;28;20053;-68
2021/11/27 05:18:33;;;;;;;3.88;1.83;;;;;;;;;;5026666;28;20135;-68
2021/11/27 05:20:59;;;;;;;2.90;1.40;;;;;;;;;;5026662;28;20108;-68
2021/11/27 05:23:26;;;;;;;4.18;1.92;;;;;;;;;;5027017;28;20053;-68
2021/11/27 05:25:53;;;;;;;3.50;1.98;;;;;;;;;;5026211;28;20563;-68
2021/11/27 05:28:19;;;;;;;3.45;1.70;;;;;;;;;;5025807;28;20073;-68
2021/11/27 05:30:48;;;;;;;3.50;1.90;;;;;;;;;;5024302;28;20077;-68
2021/11/27 05:33:16;;;;;;;4.93;2.33;;;;;;;;;;5025620;28;20068;-68
2021/11/27 05:35:43;;;;;;;3.05;1.45;;;;;;;;;;5026612;28;20060;-67
2021/11/27 05:38:10;;;;;;;3.45;1.60;;;;;;;;;;5024888;28;20080;-68
2021/11/27 05:40:37;;;;;;;4.82;2.13;;;;;;;;;;5025800;28;20649;-67
2021/11/27 05:43:04;;;;;;;4.05;1.95;;;;;;;;;;5025452;28;20080;-67
2021/11/27 05:45:31;;;;;;;2.50;1.48;;;;;;;;;;5027737;28;20097;-67
2021/11/27 05:48:00;;;;;;;4.78;1.60;;;;;;;;;;5027327;28;20103;-67
2021/11/27 05:50:27;;;;;;;3.47;1.48;;;;;;;;;;5025477;28;20077;-67
2021/11/27 05:52:54;;;;;;;2.97;1.55;;;;;;;;;;5025431;28;20037;-67
2021/11/27 05:55:21;;;;;;;2.92;1.75;;;;;;;;;;5025992;28;20511;-67
2021/11/27 05:57:48;;;;;;;2.53;1.48;;;;;;;;;;5023357;28;20057;-67
2021/11/27 06:00:16;;;;;;;3.30;1.55;;;;;;;;;;5026258;28;20122;-67
2021/11/27 06:02:42;;;;;;;3.33;1.48;;;;;;;;;;5025717;28;20412;-67
2021/11/27 06:05:11;;;;;;;4.15;1.60;;;;;;;;;;5026207;28;20053;-67
2021/11/27 06:07:37;;;;;;;2.65;1.23;;;;;;;;;;5027282;28;20060;-67
2021/11/27 06:10:05;;;;;;;3.70;1.65;;;;;;;;;;5024022;28;20049;-67
2021/11/27 06:12:32;;;;;;;3.20;1.50;;;;;;;;;;5024288;28;20526;-67
2021/11/27 06:14:58;;;;;;;2.40;1.23;;;;;;;;;;5026054;28;20077;-67
2021/11/27 06:17:25;;;;;;;2.95;1.48;;;;;;;;;;5029631;28;20073;-67
2021/11/27 06:19:52;;;;;;;3.13;1.40;;;;;;;;;;5026610;28;20050;-67
2021/11/27 06:22:22;;;;;;;3.80;1.92;;;;;;;;;;5032609;28;20136;-67
2021/11/27 06:24:49;;;;;;;3.33;1.45;;;;;;;;;;5025009;28;20508;-67
2021/11/27 06:27:15;;;;;;;3.88;1.85;;;;;;;;;;5028491;28;20687;-67
2021/11/27 06:29:42;;;;;;;3.92;2.10;;;;;;;;;;5026676;28;20049;-67
2021/11/27 06:32:11;;;;;;;2.47;1.23;;;;;;;;;;5030387;28;20131;-67
2021/11/27 06:34:39;;;;;;;3.95;2.22;;;;;;;;;;5027900;28;20045;-68
2021/11/27 06:37:06;;;;;;;5.07;1.60;;;;;;;;;;5030198;28;21196;-67
2021/11/27 06:39:35;;;;;;;7.30;1.92;;;;;;;;;;5026522;28;20053;-67
2021/11/27 06:42:02;;;;;;;5.32;1.95;;;;;;;;;;5027467;28;20053;-68
2021/11/27 06:44:29;;;;;;;4.15;1.85;;;;;;;;;;5024118;28;20079;-67
2021/11/27 06:46:56;;;;;;;5.90;2.63;;;;;;;;;;5024920;28;20132;-67
2021/11/27 06:49:23;;;;;;;4.47;2.10;;;;;;;;;;5024527;28;20508;-68
2021/11/27 06:51:50;;;;;;;5.53;3.13;;;;;;;;;;5025742;28;20103;-67
2021/11/27 06:54:17;;;;;;;7.50;3.03;;;;;;;;;;5025482;28;20072;-67
2021/11/27 06:56:45;;;;;;;4.13;1.90;;;;;;;;;;5026202;28;20073;-67
2021/11/27 06:59:11;;;;;;;3.97;1.92;;;;;;;;;;5025372;28;20037;-67
2021/11/27 07:01:38;;;;;;;3.47;1.85;;;;;;;;;;5024681;28;20077;-67
2021/11/27 07:04:05;;;;;;;5.20;2.00;;;;;;;;;;5024783;28;20118;-67
2021/11/27 07:06:31;;;;;;;3.60;1.75;;;;;;;;;;5024057;28;20081;-67
2021/11/27 07:08:58;;;;;;;4.80;1.80;;;;;;;;;;5025980;28;20053;-67
2021/11/27 07:11:25;;;;;;;2.97;1.52;;;;;;;;;;5026409;28;20048;-68
2021/11/27 07:13:52;;;;;;;5.13;1.70;;;;;;;;;;5022544;28;20144;-68
2021/11/27 07:16:19;;;;;;;4.72;1.40;;;;;;;;;;5024880;28;20068;-68
2021/11/27 07:18:45;;;;;;;3.70;1.95;;;;;;;;;;5022450;28;20147;-68
2021/11/27 07:21:12;;;;;;;3.15;1.50;;;;;;;;;;5025961;28;20073;-68
2021/11/27 07:23:39;;;;;;;6.88;2.30;;;;;;;;;;5023939;28;20115;-68
2021/11/27 07:26:06;;;;;;;5.38;2.70;;;;;;;;;;5022479;28;20076;-68
2021/11/27 07:28:32;;;;;;;13.23;5.20;;;;;;;;;;5020855;28;20058;-67
2021/11/27 07:31:01;;;;;;;9.73;4.05;;;;;;;;;;5022786;28;20073;-68
2021/11/27 07:33:28;;;;;;;9.85;3.88;;;;;;;;;;5021398;28;20062;-68
2021/11/27 07:35:55;;;;;;;9.48;3.60;;;;;;;;;;5022134;28;20070;-67
2021/11/27 07:38:22;;;;;;;7.95;4.00;;;;;;;;;;5022310;28;20069;-67
2021/11/27 07:40:48;;;;;;;7.10;2.78;;;;;;;;;;5022618;28;20085;-68
2021/11/27 07:43:15;;;;;;;10.63;3.13;;;;;;;;;;5022323;28;20139;-68
2021/11/27 07:45:42;;;;;;;6.07;3.10;;;;;;;;;;5023942;28;20049;-68
2021/11/27 07:48:10;;;;;;;8.45;2.85;;;;;;;;;;5019628;28;20053;-68
2021/11/27 07:50:36;;;;;;;4.50;2.38;;;;;;;;;;5021239;28;20072;-68
2021/11/27 07:53:03;;;;;;;5.35;2.72;;;;;;;;;;5020944;28;20661;-67
2021/11/27 07:55:29;;;;;;;5.93;3.25;;;;;;;;;;5022414;28;20468;-68
2021/11/27 07:57:56;;;;;;;5.50;2.63;;;;;;;;;;5022796;28;20194;-67
2021/11/27 08:00:23;;;;;;;7.45;3.80;;;;;;;;;;5019641;28;20053;-67
2021/11/27 08:02:50;;;;;;;6.05;2.65;;;;;;;;;;5020818;28;20490;-67
2021/11/27 08:05:18;;;;;;;3.88;2.20;;;;;;;;;;5022685;28;20085;-67
2021/11/27 08:07:44;;;;;;;5.78;2.40;;;;;;;;;;5021096;28;20047;-68
2021/11/27 08:10:13;;;;;;;8.25;2.55;;;;;;;;;;5019820;28;20400;-68
2021/11/27 08:12:39;;;;;;;6.40;3.00;;;;;;;;;;5023973;28;20491;-68
2021/11/27 08:15:07;;;;;;;30.08;6.28;;;;;;;;;;5028239;28;20138;-68
2021/11/27 08:17:35;;;;;;;26.63;8.02;;;;;;;;;;5022890;28;20580;-68
2021/11/27 08:20:02;;;;;;;17.65;4.72;;;;;;;;;;5022303;28;20053;-68
2021/11/27 08:22:30;;;;;;;10.02;4.80;;;;;;;;;;5024926;28;20111;-68
2021/11/27 08:24:56;;;;;;;11.18;4.40;;;;;;;;;;5025534;28;20057;-68
2021/11/27 08:27:24;;;;;;;9.35;4.13;;;;;;;;;;5024844;28;20045;-68
2021/11/27 08:29:51;;;;;;;9.68;3.15;;;;;;;;;;5022318;28;20396;-68
2021/11/27 08:32:17;;;;;;;6.28;3.30;;;;;;;;;;5028285;28;20142;-69
2021/11/27 08:34:44;;;;;;;9.18;3.28;;;;;;;;;;5031168;28;20136;-68
2021/11/27 08:37:10;;;;;;;6.35;3.38;;;;;;;;;;5029779;28;20052;-68
2021/11/27 08:39:38;;;;;;;4.88;2.80;;;;;;;;;;5025666;28;20076;-68
2021/11/27 08:42:05;;;;;;;7.03;2.95;;;;;;;;;;5035415;28;20132;-68
2021/11/27 08:44:32;;;;;;;6.63;2.75;;;;;;;;;;5034162;28;20053;-68
2021/11/27 08:46:59;;;;;;;4.60;2.50;;;;;;;;;;5034379;28;20049;-68
2021/11/27 08:49:25;;;;;;;5.75;2.63;;;;;;;;;;5032795;28;20045;-68
2021/11/27 08:51:52;;;;;;;3.67;2.55;;;;;;;;;;5033551;28;20049;-68
2021/11/27 08:54:19;;;;;;;5.15;3.10;;;;;;;;;;5033626;28;20136;-67
2021/11/27 08:56:47;;;;;;;3.88;2.17;;;;;;;;;;5033394;28;20106;-68
2021/11/27 08:59:14;;;;;;;6.43;2.47;;;;;;;;;;5030580;28;20049;-68
2021/11/27 09:01:42;;;;;;;4.22;2.60;;;;;;;;;;5031443;28;20080;-68
2021/11/27 09:04:08;;;;;;;4.55;2.30;;;;;;;;;;5033097;28;20049;-68
2021/11/27 09:06:35;;;;;;;4.03;2.25;;;;;;;;;;5032406;28;20068;-68
2021/11/27 09:09:02;;;;;;;4.30;2.70;;;;;;;;;;5031272;28;20081;-67
2021/11/27 09:11:29;;;;;;;6.40;2.80;;;;;;;;;;5033616;28;20048;-68
2021/11/27 09:13:57;;;;;;;3.97;2.75;;;;;;;;;;5033615;28;20045;-68
2021/11/27 09:16:24;;;;;;;6.25;2.72;;;;;;;;;;5033749;28;20072;-68
2021/11/27 09:18:50;;;;;;;6.43;2.80;;;;;;;;;;5034378;28;20069;-68
2021/11/27 09:21:17;;;;;;;5.07;2.70;;;;;;;;;;5034643;28;20084;-68
2021/11/27 09:23:44;;;;;;;3.17;2.00;;;;;;;;;;5028723;28;20077;-68
2021/11/27 09:26:10;;;;;;;4.93;2.60;;;;;;;;;;5032961;28;20431;-68
2021/11/27 09:28:37;;;;;;;4.25;2.47;;;;;;;;;;5034932;28;20056;-68
2021/11/27 09:31:05;;;;;;;5.65;2.33;;;;;;;;;;5029858;28;20089;-68
2021/11/27 09:33:32;;;;;;;4.13;2.30;;;;;;;;;;5025654;28;20146;-67
2021/11/27 09:36:01;;;;;;;4.50;2.42;;;;;;;;;;5028843;28;20498;-68
2021/11/27 09:38:28;;;;;;;4.40;2.33;;;;;;;;;;5028536;28;20104;-68
2021/11/27 09:41:08;;;;;;;10.48;2.53;;;;;;;;;;5032600;28;20479;-68
2021/11/27 09:43:36;;;;;;;3.90;2.30;;;;;;;;;;5027458;28;20419;-67
2021/11/27 09:46:03;;;;;;;4.35;2.05;;;;;;;;;;5024663;28;20049;-67
2021/11/27 09:48:32;;;;;;;5.20;2.63;;;;;;;;;;5031063;28;20677;-67
2021/11/27 09:50:59;;;;;;;5.35;2.55;;;;;;;;;;5029236;28;20049;-67
2021/11/27 09:53:27;;;;;;;4.65;2.47;;;;;;;;;;5031264;28;20503;-67
2021/11/27 09:55:53;;;;;;;4.50;2.45;;;;;;;;;;5030212;28;20139;-67
2021/11/27 09:58:21;;;;;;;4.50;2.17;;;;;;;;;;5029542;28;20137;-68
2021/11/27 10:00:48;;;;;;;7.30;2.65;;;;;;;;;;5032513;28;20433;-67
2021/11/27 10:03:14;;;;;;;3.47;2.03;;;;;;;;;;5024550;28;20053;-67
2021/11/27 10:05:44;;;;;;;4.95;2.47;;;;;;;;;;5028367;28;20077;-67
2021/11/27 10:08:11;;;;;;;5.18;2.40;;;;;;;;;;5034100;28;20053;-67
2021/11/27 10:10:38;;;;;;;3.50;1.98;;;;;;;;;;5027831;28;20116;-67
2021/11/27 10:13:04;;;;;;;4.20;2.28;;;;;;;;;;5028006;28;20571;-68
2021/11/27 10:15:31;;;;;;;4.32;2.20;;;;;;;;;;5028010;28;20512;-67
2021/11/27 10:17:57;;;;;;;3.80;1.95;;;;;;;;;;5030164;28;20533;-68
2021/11/27 10:20:24;;;;;;;5.03;2.50;;;;;;;;;;5029348;28;20107;-67
2021/11/27 10:22:53;;;;;;;6.57;2.63;;;;;;;;;;5022772;28;20053;-68
2021/11/27 10:25:31;;;;;;;5.10;2.45;;;;;;;;;;5021600;28;20162;-68
2021/11/27 10:28:07;;;;;;;7.57;3.08;;;;;;;;;;5028075;28;20057;-67
2021/11/27 10:30:48;;;;;;;5.78;2.80;;;;;;;;;;5027902;28;20103;-67
2021/11/27 10:33:16;;;;;;;4.18;2.25;;;;;;;;;;5029673;28;20541;-66
2021/11/27 10:35:57;;;;;;;5.10;2.53;;;;;;;;;;5020620;28;20651;-68
2021/11/27 10:38:39;;;;;;;4.05;2.30;;;;;;;;;;5030339;28;20157;-66
2021/11/27 10:41:07;;;;;;;5.93;2.92;;;;;;;;;;5027757;28;20053;-69
2021/11/27 10:43:34;;;;;;;5.18;2.30;;;;;;;;;;5016132;28;20080;-67
2021/11/27 10:46:01;;;;;;;9.13;2.67;;;;;;;;;;5017974;28;20689;-67
2021/11/27 10:48:28;;;;;;;7.13;3.40;;;;;;;;;;5016978;28;20079;-67
2021/11/27 10:50:59;;;;;;;3.95;2.22;;;;;;;;;;5016168;28;20049;-67
2021/11/27 10:53:27;;;;;;;4.85;2.40;;;;;;;;;;5015591;28;20667;-67
2021/11/27 10:56:04;;;;;;;4.97;2.70;;;;;;;;;;5015934;28;20132;-67
2021/11/27 10:58:31;;;;;;;5.53;2.42;;;;;;;;;;5016854;28;20790;-67
2021/11/27 11:00:59;;;;;;;3.83;2.17;;;;;;;;;;5019287;28;20061;-67
2021/11/27 11:03:31;;;;;;;3.63;2.08;;;;;;;;;;5018430;28;20134;-67
2021/11/27 11:05:59;;;;;;;4.85;2.33;;;;;;;;;;5017341;28;20053;-68
2021/11/27 11:08:36;;;;;;;5.32;2.50;;;;;;;;;;5017715;28;20093;-69
2021/11/27 11:11:25;;;;;;;4.53;2.85;;;;;;;;;;5020105;28;20144;-67
2021/11/27 11:13:55;;;;;;;4.63;2.58;;;;;;;;;;5019391;28;20168;-67
2021/11/27 11:16:23;;;;;;;4.75;2.70;;;;;;;;;;5018082;28;20067;-67
2021/11/27 11:18:52;;;;;;;4.40;2.65;;;;;;;;;;5018829;28;20061;-70
2021/11/27 11:21:20;;;;;;;4.30;2.67;;;;;;;;;;5019864;28;20048;-68
2021/11/27 11:23:46;;;;;;;4.55;2.65;;;;;;;;;;5020138;28;20053;-67
2021/11/27 11:26:14;;;;;;;4.07;2.30;;;;;;;;;;5017829;28;20061;-67
2021/11/27 11:28:43;;;;;;;6.00;2.35;;;;;;;;;;5017286;28;20140;-67
2021/11/27 11:31:13;;;;;;;4.85;2.60;;;;;;;;;;5021001;28;20057;-67
2021/11/27 11:33:43;;;;;;;5.63;2.75;;;;;;;;;;5019591;28;20064;-68
2021/11/27 11:36:11;;;;;;;5.68;2.53;;;;;;;;;;5019250;28;20491;-68
2021/11/27 11:38:39;;;;;;;5.05;2.38;;;;;;;;;;5015646;28;20053;-68
2021/11/27 11:41:06;;;;;;;6.15;2.75;;;;;;;;;;5018981;28;20065;-68
2021/11/27 11:43:33;;;;;;;5.78;3.03;;;;;;;;;;5016880;28;20200;-68
2021/11/27 11:46:00;;;;;;;4.03;2.28;;;;;;;;;;5017465;28;20143;-68
2021/11/27 11:48:29;;;;;;;4.50;2.60;;;;;;;;;;5018868;28;20052;-68
2021/11/27 11:51:03;;;;;;;4.97;2.75;;;;;;;;;;5017139;28;20081;-68
2021/11/27 11:53:34;;;;;;;6.30;2.45;;;;;;;;;;5018032;28;20053;-68
2021/11/27 11:56:03;;;;;;;4.00;2.15;;;;;;;;;;5016038;28;20080;-68
2021/11/27 11:58:33;;;;;;;6.47;3.70;;;;;;;;;;5017820;28;20053;-68
2021/11/27 12:01:03;;;;;;;4.38;2.45;;;;;;;;;;5017191;28;20524;-68
2021/11/27 12:03:36;;;;;;;4.55;2.47;;;;;;;;;;5015581;28;20712;-68
2021/11/27 12:06:09;;;;;;;5.53;2.53;;;;;;;;;;5013443;28;20056;-68
2021/11/27 12:09:06;;;;;;;5.68;2.83;;;;;;;;;;5016155;28;20918;-68
2021/11/27 12:11:42;;;;;;;;;;;;;;;;;;5018033;28;20143;-68
2021/11/27 12:14:44;;;;;;;5.27;2.93;;;;;;;;;;5016057;28;19933;-68
2021/11/27 12:17:14;;;;;;;3.90;2.40;;;;;;;;;;5018902;28;20049;-68
2021/11/27 12:19:44;;;;;;;4.00;2.00;;;;;;;;;;5019436;28;20073;-68
2021/11/27 12:22:38;;;;;;;6.07;2.97;;;;;;;;;;5016923;28;20146;-68
2021/11/27 12:25:07;;;;;;;4.43;2.35;;;;;;;;;;5016299;28;20057;-68
2021/11/27 12:27:34;;;;;;;3.92;2.47;;;;;;;;;;5019193;28;20136;-68
2021/11/27 12:30:06;;;;;;;3.55;1.95;;;;;;;;;;5017106;28;21331;-68
2021/11/27 12:32:36;;;;;;;3.60;2.38;;;;;;;;;;5017306;28;20440;-68
2021/11/27 12:35:41;;;;;;;5.03;2.47;;;;;;;;;;5015711;28;20409;-68
2021/11/27 12:38:30;;;;;;;4.18;2.10;;;;;;;;;;5017249;28;20145;-68
2021/11/27 12:40:58;;;;;;;3.97;2.38;;;;;;;;;;5019056;28;20088;-68
2021/11/27 12:43:24;;;;;;;5.82;2.45;;;;;;;;;;5016550;28;20053;-68
2021/11/27 12:45:53;;;;;;;3.65;2.22;;;;;;;;;;5016333;28;20716;-68
2021/11/27 12:48:37;;;;;;;3.75;2.08;;;;;;;;;;5016330;28;20590;-68
2021/11/27 12:51:22;;;;;;;3.67;1.95;;;;;;;;;;5015080;28;21356;-68
2021/11/27 12:54:25;;;;;;;3.92;1.85;;;;;;;;;;5013448;28;20053;-68
2021/11/27 12:57:11;;;;;;;5.07;2.00;;;;;;;;;;5017074;28;21582;-68
2021/11/27 12:59:44;;;;;;;4.43;2.17;;;;;;;;;;5017201;28;20442;-68
2021/11/27 13:02:12;;;;;;;3.78;2.10;;;;;;;;;;5019082;28;20573;-68
2021/11/27 13:04:38;;;;;;;6.40;2.10;;;;;;;;;;5017428;28;20159;-68
2021/11/27 13:07:06;;;;;;;4.15;2.00;;;;;;;;;;5015002;28;20164;-69
2021/11/27 13:09:33;;;;;;;3.88;2.17;;;;;;;;;;5017325;28;20112;-68
2021/11/27 13:12:00;;;;;;;3.50;1.73;;;;;;;;;;5020546;28;20154;-68
2021/11/27 13:14:28;;;;;;;6.07;2.35;;;;;;;;;;5021682;28;20049;-68
2021/11/27 13:17:03;;;;;;;5.28;2.35;;;;;;;;;;5020254;28;20130;-68
2021/11/27 13:19:31;;;;;;;5.85;2.10;;;;;;;;;;5019788;28;20172;-68
2021/11/27 13:22:03;;;;;;;5.20;2.03;;;;;;;;;;5020394;28;20148;-68
2021/11/27 13:24:36;;;;;;;3.40;1.60;;;;;;;;;;5020344;28;20077;-68
2021/11/27 13:27:03;;;;;;;4.20;1.88;;;;;;;;;;5019572;28;21145;-68
2021/11/27 13:29:30;;;;;;;4.15;2.00;;;;;;;;;;5017397;28;20144;-68
2021/11/27 13:31:56;;;;;;;5.72;2.00;;;;;;;;;;5017423;28;20049;-68
2021/11/27 13:34:23;;;;;;;3.78;1.80;;;;;;;;;;5020857;28;20820;-68
2021/11/27 13:36:53;;;;;;;2.88;1.70;;;;;;;;;;5018302;28;20817;-68
2021/11/27 13:39:25;;;;;;;3.65;1.75;;;;;;;;;;5018005;28;20050;-68
2021/11/27 13:42:08;;;;;;;3.40;2.08;;;;;;;;;;5017643;28;20049;-68
2021/11/27 13:44:38;;;;;;;2.92;1.85;;;;;;;;;;5016293;28;20053;-68
2021/11/27 13:47:06;;;;;;;3.38;2.00;;;;;;;;;;5017362;28;20053;-68
2021/11/27 13:49:36;;;;;;;4.20;1.88;;;;;;;;;;5016713;28;20107;-68
2021/11/27 13:52:04;;;;;;;3.33;1.90;;;;;;;;;;5017009;28;20139;-68
2021/11/27 13:54:34;;;;;;;4.18;1.73;;;;;;;;;;5017523;28;20168;-68
2021/11/27 13:57:02;;;;;;;3.85;1.75;;;;;;;;;;5019445;28;20198;-68
2021/11/27 13:59:31;;;;;;;3.60;1.98;;;;;;;;;;5016341;28;20076;-68
2021/11/27 14:02:03;;;;;;;5.05;1.92;;;;;;;;;;5020760;28;20568;-68
2021/11/27 14:04:31;;;;;;;4.20;2.17;;;;;;;;;;5015873;28;20081;-68
2021/11/27 14:06:59;;;;;;;3.85;1.92;;;;;;;;;;5013318;28;20064;-68
2021/11/27 14:09:53;;;;;;;4.15;1.77;;;;;;;;;;5017354;28;20217;-68
2021/11/27 14:12:34;;;;;;;2.65;1.75;;;;;;;;;;5016213;28;20102;-68
2021/11/27 14:15:06;;;;;;;4.40;2.67;;;;;;;;;;5018672;28;20153;-68
2021/11/27 14:17:33;;;;;;;4.70;1.88;;;;;;;;;;5018042;28;20176;-68
2021/11/27 14:20:20;;;;;;;7.93;2.13;;;;;;;;;;5017054;28;20141;-68
2021/11/27 14:22:56;;;;;;;5.40;2.58;;;;;;;;;;5017685;28;20054;-68
2021/11/27 14:25:23;;;;;;;6.32;2.22;;;;;;;;;;5021331;28;20053;-68
2021/11/27 14:27:51;;;;;;;8.57;2.42;;;;;;;;;;5018175;28;20049;-68
2021/11/27 14:30:21;;;;;;;3.83;2.20;;;;;;;;;;5015522;28;20057;-68
2021/11/27 14:32:48;;;;;;;4.72;1.80;;;;;;;;;;5017552;28;20080;-68
2021/11/27 14:35:26;;;;;;;4.00;2.03;;;;;;;;;;5016491;28;20120;-68
2021/11/27 14:37:53;;;;;;;7.60;3.95;;;;;;;;;;5018499;28;20564;-68
2021/11/27 14:40:20;;;;;;;8.30;4.53;;;;;;;;;;5017927;28;20077;-68
2021/11/27 14:42:46;;;;;;;6.97;4.30;;;;;;;;;;5019132;28;20419;-68
2021/11/27 14:45:13;;;;;;;5.25;3.45;;;;;;;;;;5019369;28;20144;-68
2021/11/27 14:47:44;;;;;;;7.60;3.60;;;;;;;;;;5016768;28;21781;-68
2021/11/27 14:50:13;;;;;;;5.53;2.53;;;;;;;;;;5016669;28;20057;-68
2021/11/27 14:52:41;;;;;;;6.22;3.50;;;;;;;;;;5014857;28;20586;-68